Time;durP1;ratioP1;P1;durP2;ratioP2;P2;SDS_P1;SDS_P2;PMS_P1;PMS_P2;Temp;Humidity;BMP_temperature;BMP_pressure;BME280_temperature;BME280_humidity;BME280_pressure;Samples;Min_cycle;Max_cycle;Signal;HPM_P1;HPM_P2
2022/12/09 00:01:16;;;;;;;72.03;30.08;;;1.40;99.90;;;;;;5029522;28;20061;-71
2022/12/09 00:03:42;;;;;;;78.70;28.55;;;1.40;99.90;;;;;;5031929;28;20037;-71
2022/12/09 00:06:12;;;;;;;80.65;30.55;;;1.30;99.90;;;;;;5031942;28;20120;-72
2022/12/09 00:08:38;;;;;;;72.43;29.48;;;1.40;99.90;;;;;;5034049;28;20052;-72
2022/12/09 00:11:05;;;;;;;69.75;29.83;;;1.40;99.90;;;;;;5035809;28;20041;-71
2022/12/09 00:13:31;;;;;;;66.82;28.83;;;1.40;99.90;;;;;;5032990;28;20060;-72
2022/12/09 00:15:57;;;;;;;67.82;28.63;;;1.30;99.90;;;;;;5035518;28;20060;-71
2022/12/09 00:18:23;;;;;;;77.88;28.70;;;1.30;99.90;;;;;;5035735;28;20029;-71
2022/12/09 00:20:49;;;;;;;77.43;29.63;;;1.40;99.90;;;;;;5035452;28;20053;-72
2022/12/09 00:23:15;;;;;;;71.50;29.30;;;1.40;99.90;;;;;;5035508;28;20033;-72
2022/12/09 00:25:41;;;;;;;73.05;28.90;;;1.30;99.90;;;;;;5034859;28;20033;-72
2022/12/09 00:28:06;;;;;;;75.70;29.23;;;1.40;99.90;;;;;;5035526;28;20088;-72
2022/12/09 00:30:32;;;;;;;70.57;30.45;;;1.30;99.90;;;;;;5035542;28;20095;-72
2022/12/09 00:32:58;;;;;;;70.20;28.98;;;1.20;99.90;;;;;;5035368;28;20041;-72
2022/12/09 00:35:24;;;;;;;71.00;29.45;;;1.30;99.90;;;;;;5017402;28;20041;-72
2022/12/09 00:37:50;;;;;;;68.82;27.23;;;1.10;99.90;;;;;;5034812;28;20095;-72
2022/12/09 00:40:16;;;;;;;74.93;30.02;;;1.10;99.90;;;;;;5035036;28;20520;-72
2022/12/09 00:42:42;;;;;;;67.35;28.85;;;1.00;99.90;;;;;;5035092;28;20064;-72
2022/12/09 00:45:08;;;;;;;68.65;29.15;;;0.90;99.90;;;;;;5035206;28;20116;-72
2022/12/09 00:47:34;;;;;;;61.30;27.42;;;0.90;99.90;;;;;;5035097;28;20496;-72
2022/12/09 00:50:00;;;;;;;62.80;27.77;;;0.90;99.90;;;;;;5035169;28;20049;-72
2022/12/09 00:52:26;;;;;;;71.18;29.23;;;1.10;99.90;;;;;;5034920;28;20481;-71
2022/12/09 00:54:51;;;;;;;63.42;26.27;;;1.10;99.90;;;;;;5035046;28;20039;-71
2022/12/09 00:57:17;;;;;;;68.18;29.50;;;1.20;99.90;;;;;;5034840;28;20049;-72
2022/12/09 00:59:43;;;;;;;72.40;29.05;;;1.20;99.90;;;;;;5034444;28;20465;-72
2022/12/09 01:02:09;;;;;;;67.00;28.10;;;1.20;99.90;;;;;;5034633;28;20033;-72
2022/12/09 01:04:34;;;;;;;73.50;29.58;;;1.20;99.90;;;;;;5034844;28;20079;-72
2022/12/09 01:07:00;;;;;;;72.22;30.45;;;1.20;99.90;;;;;;5035223;28;20125;-74
2022/12/09 01:09:26;;;;;;;71.75;30.42;;;1.10;99.90;;;;;;5035589;28;20136;-74
2022/12/09 01:11:51;;;;;;;73.70;28.63;;;1.20;99.90;;;;;;5036142;28;20096;-74
2022/12/09 01:14:17;;;;;;;70.25;30.20;;;1.20;99.90;;;;;;5036219;28;20404;-74
2022/12/09 01:16:43;;;;;;;56.65;24.90;;;1.20;99.90;;;;;;5035998;28;20053;-74
2022/12/09 01:19:12;;;;;;;70.72;28.77;;;1.20;99.90;;;;;;5034903;28;20405;-73
2022/12/09 01:21:38;;;;;;;70.15;28.80;;;1.20;99.90;;;;;;5034002;28;20041;-74
2022/12/09 01:24:08;;;;;;;64.50;28.95;;;1.20;99.90;;;;;;5033797;28;20388;-74
2022/12/09 01:26:34;;;;;;;67.22;29.23;;;1.20;99.90;;;;;;5033789;28;20041;-74
2022/12/09 01:29:00;;;;;;;71.25;29.77;;;1.20;99.90;;;;;;5033869;28;20121;-73
2022/12/09 01:31:26;;;;;;;71.07;28.85;;;1.30;99.90;;;;;;5033613;28;20132;-74
2022/12/09 01:33:54;;;;;;;69.72;28.35;;;1.20;99.90;;;;;;5034762;28;20037;-74
2022/12/09 01:36:22;;;;;;;63.97;27.95;;;1.20;99.90;;;;;;5018269;28;20077;-74
2022/12/09 01:38:49;;;;;;;63.20;27.23;;;1.30;99.90;;;;;;5035450;28;20060;-73
2022/12/09 01:41:16;;;;;;;65.97;29.15;;;1.20;99.90;;;;;;5017847;28;20051;-73
2022/12/09 01:43:42;;;;;;;70.22;29.40;;;1.20;99.90;;;;;;5017695;28;20124;-73
2022/12/09 01:46:08;;;;;;;63.88;26.50;;;1.30;99.90;;;;;;5018041;28;20141;-73
2022/12/09 01:48:42;;;;;;;65.78;27.67;;;1.30;99.90;;;;;;5035208;28;20040;-73
2022/12/09 01:51:17;;;;;;;64.10;27.23;;;1.30;99.90;;;;;;5035360;28;20077;-73
2022/12/09 01:53:45;;;;;;;65.00;27.23;;;1.30;99.90;;;;;;5035384;28;20512;-73
2022/12/09 01:56:16;;;;;;;62.13;26.52;;;1.10;99.90;;;;;;5035463;28;20049;-74
2022/12/09 01:58:43;;;;;;;57.95;24.27;;;1.10;99.90;;;;;;5035013;28;20029;-74
2022/12/09 02:01:09;;;;;;;66.65;26.67;;;1.00;99.90;;;;;;5017533;28;20045;-73
2022/12/09 02:03:35;;;;;;;69.97;27.88;;;1.00;99.90;;;;;;5035256;28;20060;-73
2022/12/09 02:06:01;;;;;;;69.38;28.88;;;1.00;99.90;;;;;;5035171;28;20080;-73
2022/12/09 02:08:27;;;;;;;62.58;27.10;;;1.00;99.90;;;;;;5035015;28;20037;-73
2022/12/09 02:11:01;;;;;;;62.03;26.80;;;0.90;99.90;;;;;;5034905;28;20038;-73
2022/12/09 02:13:46;;;;;;;64.28;27.38;;;0.90;99.90;;;;;;5017488;28;20037;-73
2022/12/09 02:16:20;;;;;;;60.13;25.33;;;0.90;99.90;;;;;;5017384;28;20037;-74
2022/12/09 02:19:19;;;;;;;67.53;27.20;;;0.90;99.90;;;;;;5034879;28;20073;-72
2022/12/09 02:21:55;;;;;;;61.30;25.55;;;1.00;99.90;;;;;;5016374;28;20409;-73
2022/12/09 02:24:39;;;;;;;58.15;25.40;;;1.10;99.90;;;;;;5034765;28;20124;-73
2022/12/09 02:27:27;;;;;;;66.35;26.27;;;1.10;99.90;;;;;;5034801;28;20091;-74
2022/12/09 02:30:04;;;;;;;62.83;26.42;;;1.20;99.90;;;;;;5034165;28;20404;-74
2022/12/09 02:32:48;;;;;;;63.92;26.98;;;1.20;99.90;;;;;;5034514;28;20512;-74
2022/12/09 02:35:22;;;;;;;118.50;44.42;;;1.20;99.90;;;;;;5034086;28;20045;-73
2022/12/09 02:37:58;;;;;;;83.38;33.55;;;1.20;99.90;;;;;;5014867;28;20045;-73
2022/12/09 02:40:29;;;;;;;87.30;32.50;;;1.10;99.90;;;;;;4997069;28;20480;-74
2022/12/09 02:42:58;;;;;;;75.10;31.70;;;0.90;99.90;;;;;;5014988;28;20401;-73
2022/12/09 02:45:27;;;;;;;71.72;29.42;;;1.00;99.90;;;;;;4997083;28;20041;-74
2022/12/09 02:47:53;;;;;;;94.68;30.85;;;0.90;99.90;;;;;;4997314;28;20493;-73
2022/12/09 02:50:26;;;;;;;90.68;35.53;;;0.90;99.90;;;;;;5014806;28;20041;-72
2022/12/09 02:52:54;;;;;;;87.78;31.88;;;0.90;99.90;;;;;;5014616;28;20042;-72
2022/12/09 02:55:21;;;;;;;91.95;35.25;;;0.90;99.90;;;;;;5014568;28;20038;-72
2022/12/09 02:57:51;;;;;;;79.15;30.63;;;0.90;99.90;;;;;;5014365;28;20438;-73
2022/12/09 03:00:17;;;;;;;70.38;28.55;;;0.80;99.90;;;;;;5014243;28;20049;-72
2022/12/09 03:02:47;;;;;;;79.30;30.00;;;0.80;99.90;;;;;;4997197;28;20045;-72
2022/12/09 03:05:24;;;;;;;64.60;26.55;;;0.80;99.90;;;;;;5014228;28;20103;-73
2022/12/09 03:08:12;;;;;;;62.88;27.63;;;0.90;99.90;;;;;;5014468;28;20037;-72
2022/12/09 03:10:42;;;;;;;61.65;26.45;;;0.90;99.90;;;;;;4996717;28;20366;-72
2022/12/09 03:13:17;;;;;;;56.17;23.35;;;0.90;99.90;;;;;;4996622;28;20045;-72
2022/12/09 03:15:48;;;;;;;57.50;21.67;;;0.90;99.90;;;;;;5014221;28;20073;-73
2022/12/09 03:18:16;;;;;;;49.15;20.70;;;1.00;99.90;;;;;;5014276;28;20053;-72
2022/12/09 03:20:45;;;;;;;46.75;20.45;;;1.10;99.90;;;;;;5014215;28;20531;-73
2022/12/09 03:23:14;;;;;;;56.05;21.27;;;1.10;99.90;;;;;;5014259;28;20045;-72
2022/12/09 03:25:44;;;;;;;51.38;21.42;;;1.10;99.90;;;;;;5014545;28;20050;-74
2022/12/09 03:28:22;;;;;;;49.92;21.50;;;1.10;99.90;;;;;;5014111;28;20038;-73
2022/12/09 03:30:48;;;;;;;51.60;20.80;;;1.00;99.90;;;;;;5003099;28;20128;-73
2022/12/09 03:33:19;;;;;;;52.42;21.27;;;1.10;99.90;;;;;;5031239;28;20048;-73
2022/12/09 03:35:55;;;;;;;51.45;22.08;;;1.10;99.90;;;;;;5032943;28;20033;-72
2022/12/09 03:38:24;;;;;;;55.60;20.55;;;1.10;99.90;;;;;;5033722;28;20037;-72
2022/12/09 03:40:59;;;;;;;54.42;22.52;;;0.90;99.90;;;;;;5033886;28;20496;-73
2022/12/09 03:43:30;;;;;;;54.13;21.10;;;0.90;99.90;;;;;;5037152;28;20041;-72
2022/12/09 03:45:56;;;;;;;50.80;21.20;;;1.10;99.90;;;;;;5019854;28;20068;-73
2022/12/09 03:48:23;;;;;;;44.97;18.90;;;1.10;99.90;;;;;;5038102;28;20388;-72
2022/12/09 03:50:59;;;;;;;42.53;17.08;;;1.10;99.90;;;;;;5037788;28;20040;-73
2022/12/09 03:53:35;;;;;;;41.28;17.23;;;1.20;99.90;;;;;;5037847;28;20041;-73
2022/12/09 03:56:10;;;;;;;41.10;17.45;;;1.10;99.90;;;;;;5037721;28;20519;-72
2022/12/09 03:58:39;;;;;;;40.47;17.40;;;1.00;99.90;;;;;;5037488;28;20033;-73
2022/12/09 04:01:06;;;;;;;41.63;18.20;;;1.00;99.90;;;;;;5037548;28;20393;-73
2022/12/09 04:03:32;;;;;;;40.28;17.45;;;1.10;99.90;;;;;;5037436;28;20029;-74
2022/12/09 04:05:57;;;;;;;39.75;16.50;;;1.00;99.90;;;;;;5019530;28;20518;-73
2022/12/09 04:08:23;;;;;;;40.72;16.27;;;1.00;99.90;;;;;;5037534;28;20029;-74
2022/12/09 04:10:49;;;;;;;33.45;14.80;;;1.20;99.90;;;;;;5037387;28;20040;-73
2022/12/09 04:13:14;;;;;;;33.65;14.32;;;1.20;99.90;;;;;;5037261;28;20053;-72
2022/12/09 04:15:40;;;;;;;44.00;18.23;;;1.20;99.90;;;;;;5037106;28;20626;-73
2022/12/09 04:18:06;;;;;;;51.88;22.17;;;1.10;99.90;;;;;;5037076;28;20045;-72
2022/12/09 04:20:31;;;;;;;61.47;22.45;;;1.10;99.90;;;;;;5019464;28;20050;-74
2022/12/09 04:22:57;;;;;;;112.53;20.85;;;1.00;99.90;;;;;;5019764;28;20116;-73
2022/12/09 04:25:23;;;;;;;50.40;20.45;;;1.00;99.90;;;;;;5037066;28;20071;-72
2022/12/09 04:27:49;;;;;;;102.82;17.67;;;0.90;99.90;;;;;;5035287;28;20628;-72
2022/12/09 04:30:15;;;;;;;93.90;20.60;;;0.80;99.90;;;;;;5016021;28;20049;-73
2022/12/09 04:32:40;;;;;;;65.50;22.08;;;0.90;99.90;;;;;;5036472;28;20052;-73
2022/12/09 04:35:06;;;;;;;58.47;21.20;;;0.90;99.90;;;;;;5036910;28;20049;-72
2022/12/09 04:37:33;;;;;;;86.00;18.33;;;0.90;99.90;;;;;;5037115;28;20041;-73
2022/12/09 04:39:58;;;;;;;98.35;19.10;;;0.90;99.90;;;;;;5036751;28;20547;-72
2022/12/09 04:42:24;;;;;;;43.05;18.65;;;0.80;99.90;;;;;;5036759;28;20033;-72
2022/12/09 04:44:50;;;;;;;46.88;19.95;;;0.80;99.90;;;;;;5036769;28;20136;-72
2022/12/09 04:47:16;;;;;;;63.13;20.60;;;0.90;99.90;;;;;;5019004;28;20083;-72
2022/12/09 04:49:41;;;;;;;39.22;16.85;;;0.90;99.90;;;;;;5036633;28;20094;-72
2022/12/09 04:52:07;;;;;;;24.38;11.35;;;0.90;99.90;;;;;;5018809;28;20053;-72
2022/12/09 04:54:33;;;;;;;20.63;9.60;;;0.90;99.90;;;;;;5035795;28;20037;-72
2022/12/09 04:56:58;;;;;;;29.60;9.55;;;0.80;99.90;;;;;;5036377;28;20045;-72
2022/12/09 04:59:24;;;;;;;19.45;8.60;;;0.80;99.90;;;;;;5018603;28;20044;-72
2022/12/09 05:01:50;;;;;;;25.83;9.35;;;0.80;99.90;;;;;;5018416;28;20400;-72
2022/12/09 05:04:16;;;;;;;29.13;11.00;;;0.90;99.90;;;;;;5036294;28;20044;-72
2022/12/09 05:06:41;;;;;;;31.77;11.70;;;0.70;99.90;;;;;;5018652;28;20088;-73
2022/12/09 05:09:11;;;;;;;24.52;11.13;;;0.70;99.90;;;;;;5036403;28;20036;-72
2022/12/09 05:11:37;;;;;;;34.58;11.65;;;0.60;99.90;;;;;;5036345;28;20103;-73
2022/12/09 05:14:02;;;;;;;26.40;11.65;;;0.60;99.90;;;;;;5036087;28;20396;-72
2022/12/09 05:16:28;;;;;;;66.88;11.35;;;0.60;99.90;;;;;;5035969;28;20041;-73
2022/12/09 05:18:54;;;;;;;88.43;11.23;;;0.60;99.90;;;;;;5017980;28;20038;-73
2022/12/09 05:21:20;;;;;;;35.38;10.70;;;0.60;99.90;;;;;;5018096;28;20399;-73
2022/12/09 05:23:47;;;;;;;31.58;11.93;;;0.60;99.90;;;;;;5018470;28;20037;-73
2022/12/09 05:26:15;;;;;;;49.95;13.25;;;0.60;99.90;;;;;;5036079;28;20127;-74
2022/12/09 05:28:41;;;;;;;33.60;13.43;;;0.70;99.90;;;;;;5018053;28;20053;-73
2022/12/09 05:31:10;;;;;;;31.52;11.90;;;0.70;99.90;;;;;;5035777;28;20400;-73
2022/12/09 05:33:36;;;;;;;28.70;11.50;;;0.70;99.90;;;;;;5035803;28;20091;-73
2022/12/09 05:36:02;;;;;;;34.10;10.43;;;0.70;99.90;;;;;;5036036;28;20072;-73
2022/12/09 05:38:29;;;;;;;28.15;10.88;;;0.80;99.90;;;;;;5017913;28;20388;-73
2022/12/09 05:40:58;;;;;;;32.45;13.73;;;0.90;99.90;;;;;;5017887;28;20074;-72
2022/12/09 05:43:24;;;;;;;27.13;11.53;;;0.90;99.90;;;;;;5017714;28;20041;-72
2022/12/09 05:45:50;;;;;;;32.33;13.25;;;1.00;99.90;;;;;;5035464;28;20041;-73
2022/12/09 05:48:16;;;;;;;36.45;14.63;;;0.90;99.90;;;;;;5035580;28;20049;-73
2022/12/09 05:50:41;;;;;;;28.52;12.45;;;1.00;99.90;;;;;;5017727;28;20123;-72
2022/12/09 05:53:07;;;;;;;29.85;13.20;;;1.00;99.90;;;;;;5035433;28;20072;-73
2022/12/09 05:55:33;;;;;;;26.70;11.77;;;0.90;99.90;;;;;;5035331;28;20048;-72
2022/12/09 05:57:59;;;;;;;26.65;11.32;;;1.00;99.90;;;;;;5017027;28;20393;-73
2022/12/09 06:00:25;;;;;;;24.45;11.35;;;0.80;99.90;;;;;;5034538;28;20091;-73
2022/12/09 06:02:51;;;;;;;25.02;10.68;;;0.90;99.90;;;;;;5017344;28;20111;-72
2022/12/09 06:05:17;;;;;;;24.90;10.93;;;1.00;99.90;;;;;;5034320;28;20515;-72
2022/12/09 06:07:42;;;;;;;23.67;10.93;;;1.00;99.90;;;;;;5035126;28;20140;-73
2022/12/09 06:10:08;;;;;;;24.08;10.52;;;1.10;99.90;;;;;;5035332;28;20061;-72
2022/12/09 06:12:34;;;;;;;27.55;11.82;;;1.10;99.90;;;;;;5017244;28;20422;-73
2022/12/09 06:15:00;;;;;;;27.17;11.15;;;1.20;99.90;;;;;;5035274;28;20037;-73
2022/12/09 06:17:26;;;;;;;27.67;12.10;;;1.20;99.90;;;;;;5035069;28;20045;-72
2022/12/09 06:19:52;;;;;;;23.80;11.32;;;1.20;99.90;;;;;;5017177;28;20500;-72
2022/12/09 06:22:17;;;;;;;32.38;12.85;;;1.20;99.90;;;;;;5034906;28;20484;-72
2022/12/09 06:24:43;;;;;;;32.95;14.05;;;1.20;99.90;;;;;;5034660;28;20037;-72
2022/12/09 06:27:09;;;;;;;35.38;14.90;;;1.10;99.90;;;;;;5034543;28;20124;-72
2022/12/09 06:29:34;;;;;;;30.02;13.88;;;1.10;99.90;;;;;;5034776;28;20045;-72
2022/12/09 06:32:00;;;;;;;36.22;16.63;;;1.20;99.90;;;;;;5034710;28;20565;-72
2022/12/09 06:34:28;;;;;;;33.90;15.02;;;1.20;99.90;;;;;;5034692;28;20574;-73
2022/12/09 06:36:54;;;;;;;26.52;12.32;;;1.20;99.90;;;;;;5016902;28;20480;-72
2022/12/09 06:39:19;;;;;;;24.42;11.32;;;1.10;99.90;;;;;;5034470;28;20052;-72
2022/12/09 06:41:45;;;;;;;23.40;11.13;;;1.00;99.90;;;;;;5034484;28;20041;-72
2022/12/09 06:44:12;;;;;;;21.52;11.35;;;1.00;99.90;;;;;;5034335;28;20452;-72
2022/12/09 06:46:37;;;;;;;22.80;10.02;;;1.00;99.90;;;;;;5016611;28;20500;-72
2022/12/09 06:49:03;;;;;;;22.45;10.52;;;1.00;99.90;;;;;;5034193;28;20037;-72
2022/12/09 06:51:29;;;;;;;22.13;10.10;;;1.00;99.90;;;;;;5033832;28;20573;-73
2022/12/09 06:53:55;;;;;;;19.90;9.57;;;1.10;99.90;;;;;;5034360;28;20046;-72
2022/12/09 06:56:22;;;;;;;23.17;10.43;;;1.00;99.90;;;;;;5034136;28;20041;-74
2022/12/09 06:58:47;;;;;;;19.65;9.38;;;1.10;99.90;;;;;;5034181;28;20045;-73
2022/12/09 07:01:23;;;;;;;20.75;9.20;;;1.10;99.90;;;;;;5034239;28;20036;-75
2022/12/09 07:03:51;;;;;;;19.27;9.00;;;1.10;99.90;;;;;;5034063;28;20057;-74
2022/12/09 07:06:31;;;;;;;20.77;9.35;;;1.10;99.90;;;;;;5034008;28;20117;-73
2022/12/09 07:09:00;;;;;;;18.90;8.98;;;1.10;99.90;;;;;;5033591;28;20037;-73
2022/12/09 07:11:26;;;;;;;31.42;14.77;;;1.20;99.90;;;;;;5033718;28;20374;-73
2022/12/09 07:13:52;;;;;;;25.60;12.85;;;1.20;99.90;;;;;;5016490;28;20037;-73
2022/12/09 07:16:18;;;;;;;24.95;12.60;;;1.20;99.90;;;;;;5014049;28;20043;-73
2022/12/09 07:18:44;;;;;;;31.95;14.23;;;1.30;99.90;;;;;;5013469;28;20037;-73
2022/12/09 07:21:13;;;;;;;36.65;17.08;;;1.30;99.90;;;;;;5030832;28;20404;-73
2022/12/09 07:23:40;;;;;;;35.70;17.65;;;1.40;99.90;;;;;;5014080;28;20053;-73
2022/12/09 07:26:06;;;;;;;30.35;14.95;;;1.40;99.90;;;;;;5013675;28;20492;-73
2022/12/09 07:28:33;;;;;;;26.48;12.70;;;1.40;99.90;;;;;;5032092;28;20558;-73
2022/12/09 07:30:59;;;;;;;29.08;12.88;;;1.40;99.90;;;;;;5015315;28;20584;-74
2022/12/09 07:33:24;;;;;;;26.23;12.63;;;1.30;99.90;;;;;;5032878;28;20132;-73
2022/12/09 07:35:54;;;;;;;24.85;12.57;;;1.30;99.90;;;;;;5010758;28;20060;-74
2022/12/09 07:38:21;;;;;;;21.15;10.57;;;1.30;99.90;;;;;;5030479;28;20045;-73
2022/12/09 07:40:48;;;;;;;18.88;9.73;;;1.20;99.90;;;;;;5032702;28;20053;-72
2022/12/09 07:43:13;;;;;;;19.65;9.77;;;1.10;99.90;;;;;;5015805;28;20120;-73
2022/12/09 07:45:39;;;;;;;24.10;8.02;;;1.10;99.90;;;;;;5016087;28;20080;-72
2022/12/09 07:48:07;;;;;;;68.82;21.10;;;1.10;99.90;;;;;;5016257;28;20087;-73
2022/12/09 07:50:34;;;;;;;30.88;8.60;;;1.10;99.90;;;;;;5033661;28;20500;-72
2022/12/09 07:53:00;;;;;;;78.22;35.55;;;1.10;99.90;;;;;;5033704;28;20041;-72
2022/12/09 07:55:26;;;;;;;27.50;12.98;;;1.20;99.90;;;;;;5033707;28;20026;-72
2022/12/09 07:57:52;;;;;;;18.77;9.65;;;1.20;99.90;;;;;;5015908;28;20169;-73
2022/12/09 08:00:18;;;;;;;14.93;7.35;;;1.30;99.90;;;;;;5033596;28;20045;-72
2022/12/09 08:02:44;;;;;;;27.33;12.32;;;1.30;99.90;;;;;;5033500;28;20370;-72
2022/12/09 08:05:10;;;;;;;23.63;11.27;;;1.40;99.90;;;;;;5033367;28;20396;-72
2022/12/09 08:07:36;;;;;;;21.35;10.90;;;1.40;99.90;;;;;;5033506;28;20120;-72
2022/12/09 08:10:01;;;;;;;21.42;9.80;;;1.40;99.90;;;;;;5033489;28;20072;-75
2022/12/09 08:12:27;;;;;;;21.58;9.98;;;1.30;99.90;;;;;;5033613;28;20110;-72
2022/12/09 08:14:53;;;;;;;16.77;8.73;;;1.30;99.90;;;;;;5015725;28;20137;-76
2022/12/09 08:17:18;;;;;;;18.85;8.65;;;1.30;99.90;;;;;;5033492;28;20584;-76
2022/12/09 08:19:45;;;;;;;15.82;8.05;;;1.30;99.90;;;;;;5015730;28;20045;-72
2022/12/09 08:22:11;;;;;;;18.85;8.57;;;1.30;99.90;;;;;;5033437;28;20034;-72
2022/12/09 08:24:36;;;;;;;16.10;8.00;;;1.30;99.90;;;;;;5015436;28;20045;-72
2022/12/09 08:27:02;;;;;;;15.02;7.43;;;1.30;99.90;;;;;;5032822;28;20592;-72
2022/12/09 08:29:28;;;;;;;14.50;7.80;;;1.30;99.90;;;;;;5035133;28;20091;-72
2022/12/09 08:31:53;;;;;;;14.13;7.78;;;1.30;99.90;;;;;;5036885;28;20037;-72
2022/12/09 08:34:19;;;;;;;14.32;7.25;;;1.30;99.90;;;;;;5036580;28;20076;-72
2022/12/09 08:36:45;;;;;;;18.95;8.90;;;1.30;99.90;;;;;;5036806;28;20029;-72
2022/12/09 08:39:12;;;;;;;14.68;7.90;;;1.40;99.90;;;;;;5036785;28;20053;-72
2022/12/09 08:41:39;;;;;;;13.27;7.03;;;1.40;99.90;;;;;;5036888;28;20041;-73
2022/12/09 08:44:04;;;;;;;14.30;6.97;;;1.50;99.90;;;;;;5036897;28;20083;-72
2022/12/09 08:46:32;;;;;;;16.63;8.55;;;1.50;99.90;;;;;;5036526;28;20419;-73
2022/12/09 08:49:00;;;;;;;15.80;7.90;;;1.50;99.90;;;;;;5036443;28;20048;-73
2022/12/09 08:51:28;;;;;;;15.23;8.18;;;1.70;99.90;;;;;;5036793;28;20057;-77
2022/12/09 08:53:54;;;;;;;15.30;7.95;;;1.70;99.90;;;;;;5036495;28;20045;-72
2022/12/09 08:56:20;;;;;;;17.30;8.93;;;1.80;99.90;;;;;;5036544;28;20065;-74
2022/12/09 08:58:47;;;;;;;15.95;7.07;;;1.90;99.90;;;;;;5036427;28;20535;-72
2022/12/09 09:01:18;;;;;;;14.63;7.57;;;1.90;99.90;;;;;;5036401;28;20056;-72
2022/12/09 09:03:45;;;;;;;17.38;8.52;;;2.00;99.90;;;;;;5036151;28;20107;-72
2022/12/09 09:06:11;;;;;;;15.48;8.50;;;1.90;99.90;;;;;;5036277;28;20141;-72
2022/12/09 09:08:38;;;;;;;14.85;7.93;;;1.90;99.90;;;;;;5036299;28;20044;-72
2022/12/09 09:11:09;;;;;;;18.00;9.13;;;1.80;99.90;;;;;;5036339;28;20394;-77
2022/12/09 09:13:39;;;;;;;17.33;8.32;;;1.80;99.90;;;;;;5036129;28;20080;-72
2022/12/09 09:16:11;;;;;;;19.23;8.98;;;1.80;99.90;;;;;;5018137;28;20037;-72
2022/12/09 09:18:37;;;;;;;17.38;9.05;;;1.80;99.90;;;;;;5035969;28;20041;-72
2022/12/09 09:21:04;;;;;;;16.30;8.82;;;1.80;99.90;;;;;;5035759;28;20052;-72
2022/12/09 09:23:30;;;;;;;17.17;7.88;;;1.90;99.90;;;;;;5035920;28;20488;-76
2022/12/09 09:25:56;;;;;;;15.07;7.80;;;1.90;99.90;;;;;;5018077;28;20041;-72
2022/12/09 09:28:21;;;;;;;15.20;7.78;;;1.90;99.90;;;;;;5035879;28;20045;-76
2022/12/09 09:30:49;;;;;;;15.50;7.78;;;2.10;99.90;;;;;;5017958;28;20447;-76
2022/12/09 09:33:16;;;;;;;16.50;8.40;;;2.10;99.90;;;;;;5035895;28;20389;-72
2022/12/09 09:35:42;;;;;;;45.70;16.73;;;2.20;99.90;;;;;;5035854;28;20444;-73
2022/12/09 09:38:08;;;;;;;48.05;20.02;;;2.20;99.90;;;;;;5035619;28;20073;-72
2022/12/09 09:40:34;;;;;;;78.18;30.13;;;2.10;99.90;;;;;;5035348;28;20100;-72
2022/12/09 09:43:00;;;;;;;39.13;19.05;;;2.10;99.90;;;;;;5035428;28;20046;-72
2022/12/09 09:45:26;;;;;;;34.08;15.18;;;2.10;99.90;;;;;;5035388;28;20073;-72
2022/12/09 09:48:01;;;;;;;25.75;12.35;;;2.10;99.90;;;;;;5035497;28;20128;-72
2022/12/09 09:50:40;;;;;;;18.75;9.57;;;2.10;99.90;;;;;;5017802;28;20040;-73
2022/12/09 09:53:35;;;;;;;20.17;10.63;;;2.10;99.90;;;;;;5017538;28;20448;-72
2022/12/09 09:56:04;;;;;;;22.30;11.55;;;2.10;99.90;;;;;;5000876;28;20065;-72
2022/12/09 09:59:01;;;;;;;24.10;13.82;;;2.10;99.90;;;;;;5035296;28;20052;-72
2022/12/09 10:01:32;;;;;;;63.08;12.63;;;2.10;99.90;;;;;;5035328;28;20049;-73
2022/12/09 10:04:10;;;;;;;59.58;9.88;;;2.10;99.90;;;;;;5035120;28;20048;-72
2022/12/09 10:06:48;;;;;;;22.10;10.43;;;2.10;99.90;;;;;;5035150;28;20493;-72
2022/12/09 10:09:56;;;;;;;21.17;11.48;;;2.00;99.90;;;;;;5017436;28;20044;-72
2022/12/09 10:12:24;;;;;;;24.00;11.30;;;2.10;99.90;;;;;;5017201;28;20049;-72
2022/12/09 10:15:10;;;;;;;20.27;9.75;;;2.10;99.90;;;;;;5017138;28;20138;-77
2022/12/09 10:17:58;;;;;;;27.90;13.10;;;2.10;99.90;;;;;;5034815;28;20037;-72
2022/12/09 10:20:27;;;;;;;53.22;13.07;;;2.20;99.90;;;;;;5034706;28;20577;-72
2022/12/09 10:22:59;;;;;;;78.93;15.10;;;2.30;99.90;;;;;;5034318;28;20449;-72
2022/12/09 10:25:31;;;;;;;28.60;13.15;;;2.30;99.90;;;;;;5034693;28;20405;-72
2022/12/09 10:28:09;;;;;;;33.33;15.80;;;2.30;99.90;;;;;;5034114;28;20124;-72
2022/12/09 10:30:35;;;;;;;30.25;14.45;;;2.30;99.90;;;;;;5035189;28;20049;-72
2022/12/09 10:33:01;;;;;;;30.15;13.68;;;2.40;99.90;;;;;;5016805;28;20040;-72
2022/12/09 10:35:29;;;;;;;32.28;13.50;;;2.40;99.90;;;;;;5017131;28;20037;-72
2022/12/09 10:38:04;;;;;;;23.90;11.77;;;4.10;99.90;;;;;;5034710;28;20087;-71
2022/12/09 10:40:45;;;;;;;36.75;16.23;;;4.40;99.90;;;;;;5016847;28;20045;-71
2022/12/09 10:43:37;;;;;;;35.53;17.40;;;3.90;99.90;;;;;;5034572;28;20041;-71
2022/12/09 10:46:18;;;;;;;28.13;14.68;;;3.50;99.90;;;;;;5034556;28;20038;-70
2022/12/09 10:48:47;;;;;;;37.45;19.48;;;3.50;99.90;;;;;;5016687;28;20489;-70
2022/12/09 10:51:22;;;;;;;30.08;15.38;;;3.50;99.90;;;;;;5016111;28;20038;-70
2022/12/09 10:53:56;;;;;;;26.13;13.15;;;3.50;99.90;;;;;;5034437;28;20551;-70
2022/12/09 10:56:24;;;;;;;36.47;14.63;;;3.20;99.90;;;;;;5016608;28;20107;-76
2022/12/09 10:59:08;;;;;;;31.42;14.10;;;3.10;99.90;;;;;;5016934;28;20041;-70
2022/12/09 11:02:06;;;;;;;39.72;14.13;;;3.00;99.90;;;;;;5034322;28;20535;-71
2022/12/09 11:04:36;;;;;;;27.05;14.20;;;3.00;99.90;;;;;;5015895;28;20065;-71
2022/12/09 11:07:11;;;;;;;27.75;13.57;;;3.00;99.90;;;;;;5032090;28;20041;-69
2022/12/09 11:09:49;;;;;;;26.73;13.20;;;2.90;99.90;;;;;;5032271;28;20041;-70
2022/12/09 11:12:27;;;;;;;27.42;13.20;;;3.10;99.90;;;;;;5014947;28;20477;-70
2022/12/09 11:14:59;;;;;;;21.92;11.75;;;3.20;99.90;;;;;;5014768;28;20041;-69
2022/12/09 11:17:26;;;;;;;22.25;12.10;;;2.90;99.90;;;;;;5032623;28;20041;-76
2022/12/09 11:20:03;;;;;;;26.45;13.80;;;2.90;99.90;;;;;;5015730;28;20520;-69
2022/12/09 11:22:41;;;;;;;30.10;14.90;;;2.90;99.90;;;;;;5016285;28;20037;-69
2022/12/09 11:25:26;;;;;;;26.45;13.95;;;2.90;99.90;;;;;;5033794;28;20029;-69
2022/12/09 11:28:00;;;;;;;30.20;15.77;;;2.80;99.90;;;;;;5033899;28;20037;-70
2022/12/09 11:31:01;;;;;;;26.95;14.10;;;2.90;99.90;;;;;;5033865;28;20041;-70
2022/12/09 11:33:33;;;;;;;31.30;16.05;;;3.00;99.90;;;;;;5030208;28;20564;-69
2022/12/09 11:35:59;;;;;;;67.13;14.80;;;2.80;99.90;;;;;;5031495;28;20045;-69
2022/12/09 11:38:36;;;;;;;30.27;15.85;;;2.70;99.90;;;;;;5030512;28;20052;-71
2022/12/09 11:42:12;;;;;;;54.28;20.90;;;2.80;99.90;;;;;;5012955;28;20152;-82
2022/12/09 11:44:00;;;;;;;57.20;25.88;;;2.80;99.90;;;;;;5031073;28;20485;-72
2022/12/09 11:46:28;;;;;;;36.28;17.27;;;2.70;99.90;;;;;;5031628;28;20088;-69
2022/12/09 11:48:56;;;;;;;33.17;16.55;;;2.80;99.90;;;;;;5014153;28;20378;-69
2022/12/09 11:51:36;;;;;;;48.40;21.85;;;2.70;99.90;;;;;;5032063;28;20047;-80
2022/12/09 11:54:21;;;;;;;31.83;16.58;;;2.60;99.90;;;;;;5031349;28;20029;-69
2022/12/09 11:56:49;;;;;;;30.42;14.38;;;2.70;99.90;;;;;;5031414;28;20506;-69
2022/12/09 11:59:50;;;;;;;27.25;14.45;;;2.80;99.90;;;;;;5032470;28;20095;-69
2022/12/09 12:02:22;;;;;;;40.40;19.55;;;2.60;99.90;;;;;;5020830;28;20136;-69
2022/12/09 12:05:27;;;;;;;28.08;14.50;;;2.70;99.90;;;;;;5033450;28;20044;-69
2022/12/09 12:08:22;;;;;;;33.17;14.93;;;2.80;99.90;;;;;;5036277;28;20042;-68
2022/12/09 12:11:02;;;;;;;30.33;13.82;;;2.70;99.90;;;;;;5034096;28;20388;-70
2022/12/09 12:13:36;;;;;;;29.45;13.85;;;2.90;99.90;;;;;;5017307;28;20048;-71
2022/12/09 12:16:23;;;;;;;79.63;32.15;;;2.90;99.90;;;;;;5035050;28;20042;-78
2022/12/09 12:19:12;;;;;;;63.95;26.35;;;2.90;99.90;;;;;;5017882;28;20567;-69
2022/12/09 12:22:01;;;;;;;26.75;13.48;;;2.90;99.90;;;;;;5036944;28;20041;-72
2022/12/09 12:24:51;;;;;;;28.02;13.35;;;3.00;99.90;;;;;;5035652;28;20507;-69
2022/12/09 12:27:44;;;;;;;29.13;13.95;;;2.90;99.90;;;;;;5034280;28;20052;-69
2022/12/09 12:30:14;;;;;;;27.90;13.43;;;2.90;99.90;;;;;;5034336;28;20041;-71
2022/12/09 12:33:25;;;;;;;27.30;13.65;;;3.00;99.90;;;;;;5035018;28;20037;-80
2022/12/09 12:36:18;;;;;;;28.05;13.30;;;3.10;99.90;;;;;;5003230;28;20100;-70
2022/12/09 12:39:12;;;;;;;25.17;12.10;;;2.90;99.90;;;;;;5034457;28;20037;-70
2022/12/09 12:42:02;;;;;;;24.17;12.75;;;2.90;99.90;;;;;;5034916;28;20048;-70
2022/12/09 12:47:58;;;;;;;23.75;11.98;;;3.00;99.90;;;;;;5033360;28;20121;-70
2022/12/09 12:50:42;;;;;;;25.55;12.50;;;3.00;99.90;;;;;;5034856;28;20569;-70
2022/12/09 12:53:20;;;;;;;27.67;13.70;;;3.10;99.90;;;;;;5016250;28;20034;-69
2022/12/09 12:56:06;;;;;;;28.13;13.70;;;3.10;99.90;;;;;;5017743;28;20187;-78
2022/12/09 12:58:44;;;;;;;31.73;15.02;;;3.10;99.90;;;;;;5036291;28;20030;-80